Time;durP1;ratioP1;P1;durP2;ratioP2;P2;SDS_P1;SDS_P2;PMS_P1;PMS_P2;Temp;Humidity;BMP_temperature;BMP_pressure;BME280_temperature;BME280_humidity;BME280_pressure;Samples;Min_cycle;Max_cycle;Signal;HPM_P1;HPM_P2
2023/07/28 00:02:03;;;;;;;0.57;0.45;;;22.00;60.60;;;;;;6294554;28;20107;-63
2023/07/28 00:05:04;;;;;;;0.70;0.50;;;22.00;60.60;;;;;;6293313;28;20394;-64
2023/07/28 00:08:05;;;;;;;0.50;0.50;;;22.00;60.70;;;;;;6294407;28;20055;-64
2023/07/28 00:11:13;;;;;;;0.77;0.40;;;22.00;60.60;;;;;;6293284;28;20029;-63
2023/07/28 00:14:14;;;;;;;0.40;0.40;;;22.00;60.60;;;;;;6294342;28;20024;-63
2023/07/28 00:17:14;;;;;;;0.90;0.50;;;22.00;60.60;;;;;;6294195;28;20372;-64
2023/07/28 00:20:15;;;;;;;0.70;0.60;;;22.00;60.60;;;;;;6294149;28;20020;-64
2023/07/28 00:23:16;;;;;;;0.35;0.28;;;22.00;60.60;;;;;;6294406;28;20020;-64
2023/07/28 00:26:16;;;;;;;0.30;0.30;;;22.00;60.60;;;;;;6294343;28;20017;-63
2023/07/28 00:29:18;;;;;;;0.93;0.60;;;22.00;60.60;;;;;;6294068;28;20488;-63
2023/07/28 00:32:18;;;;;;;0.30;0.30;;;22.00;60.60;;;;;;6293898;28;20104;-63
2023/07/28 00:35:19;;;;;;;0.63;0.43;;;22.00;60.60;;;;;;6293914;28;20036;-64
2023/07/28 00:38:19;;;;;;;0.60;0.50;;;22.00;60.60;;;;;;6293561;28;20030;-63
2023/07/28 00:41:20;;;;;;;0.65;0.65;;;22.00;60.60;;;;;;6294041;28;20103;-64
2023/07/28 00:44:21;;;;;;;0.60;0.40;;;22.00;60.60;;;;;;6292813;28;20036;-64
2023/07/28 00:47:21;;;;;;;0.45;0.40;;;22.00;60.60;;;;;;6293764;28;20016;-64
2023/07/28 00:50:22;;;;;;;1.25;0.50;;;22.00;60.60;;;;;;6293311;28;20058;-63
2023/07/28 00:53:24;;;;;;;0.52;0.45;;;22.00;60.70;;;;;;6293728;28;20047;-64
2023/07/28 00:56:25;;;;;;;0.68;0.50;;;22.00;60.60;;;;;;6293416;28;20025;-64
2023/07/28 00:59:26;;;;;;;0.60;0.50;;;22.00;60.60;;;;;;6293385;28;20491;-63
2023/07/28 01:02:27;;;;;;;0.52;0.40;;;22.00;60.60;;;;;;6292206;28;20025;-64
2023/07/28 01:06:10;;;;;;;1.25;0.50;;;22.00;60.60;;;;;;6293606;28;20074;-64
2023/07/28 01:09:15;;;;;;;0.60;0.50;;;22.00;60.60;;;;;;6285355;28;20056;-63
2023/07/28 01:12:16;;;;;;;0.80;0.57;;;22.00;60.60;;;;;;6293268;28;20477;-64
2023/07/28 01:15:17;;;;;;;0.28;0.28;;;22.00;60.70;;;;;;6293469;28;20028;-63
2023/07/28 01:18:17;;;;;;;0.73;0.40;;;22.00;60.70;;;;;;6293293;28;20538;-63
2023/07/28 01:21:26;;;;;;;0.70;0.50;;;22.00;60.70;;;;;;6292953;28;20025;-63
2023/07/28 01:24:37;;;;;;;0.70;0.47;;;22.00;60.70;;;;;;6293460;28;20066;-64
2023/07/28 01:27:42;;;;;;;0.65;0.60;;;22.00;60.70;;;;;;6292781;28;20016;-63
2023/07/28 01:30:43;;;;;;;0.30;0.30;;;22.00;60.70;;;;;;6293206;28;20031;-64
2023/07/28 01:33:43;;;;;;;0.40;0.30;;;22.00;60.70;;;;;;6293088;28;20045;-64
2023/07/28 01:36:44;;;;;;;0.52;0.40;;;22.00;60.70;;;;;;6293380;28;20606;-63
2023/07/28 01:39:45;;;;;;;0.73;0.38;;;22.00;60.70;;;;;;6293167;28;20036;-64
2023/07/28 01:42:46;;;;;;;0.75;0.40;;;22.00;60.70;;;;;;6293268;28;20017;-64
2023/07/28 01:45:46;;;;;;;0.55;0.40;;;22.00;60.70;;;;;;6293010;28;20023;-64
2023/07/28 01:48:47;;;;;;;0.50;0.50;;;22.00;60.80;;;;;;6293415;28;20020;-63
2023/07/28 01:51:48;;;;;;;0.40;0.40;;;22.00;60.70;;;;;;6293004;28;20688;-64
2023/07/28 01:54:50;;;;;;;0.40;0.40;;;22.00;60.80;;;;;;6293076;28;20099;-63
2023/07/28 01:58:01;;;;;;;0.50;0.40;;;22.00;60.80;;;;;;6296297;28;20031;-64
2023/07/28 02:01:02;;;;;;;0.40;0.40;;;22.00;60.80;;;;;;6297124;28;20025;-64
2023/07/28 02:04:02;;;;;;;0.47;0.40;;;22.00;60.70;;;;;;6297673;28;20032;-63
2023/07/28 02:07:03;;;;;;;0.55;0.40;;;22.00;60.80;;;;;;6297347;28;20517;-63
2023/07/28 02:10:04;;;;;;;0.30;0.30;;;22.00;60.80;;;;;;6297063;28;20028;-64
2023/07/28 02:13:05;;;;;;;0.95;0.40;;;22.00;60.80;;;;;;6297215;28;20013;-64
2023/07/28 02:16:06;;;;;;;0.43;0.40;;;22.00;60.80;;;;;;6297095;28;20656;-64
2023/07/28 02:19:07;;;;;;;0.82;0.40;;;22.00;60.80;;;;;;6296987;28;20028;-64
2023/07/28 02:22:08;;;;;;;0.40;0.30;;;22.00;60.80;;;;;;6296828;28;20031;-64
2023/07/28 02:25:10;;;;;;;0.50;0.38;;;22.00;60.80;;;;;;6297028;28;20025;-63
2023/07/28 02:28:11;;;;;;;0.30;0.30;;;22.00;60.90;;;;;;6296618;28;20024;-64
2023/07/28 02:31:12;;;;;;;0.30;0.30;;;22.00;60.80;;;;;;6296524;28;20406;-64
2023/07/28 02:34:13;;;;;;;0.40;0.40;;;22.00;60.80;;;;;;6296712;28;20060;-63
2023/07/28 02:37:15;;;;;;;0.80;0.40;;;22.00;60.90;;;;;;6295446;28;20028;-64
2023/07/28 02:40:16;;;;;;;0.77;0.30;;;22.00;60.80;;;;;;6295427;28;20027;-64
2023/07/28 02:43:16;;;;;;;0.57;0.40;;;22.00;60.90;;;;;;6296418;28;20028;-64
2023/07/28 02:46:17;;;;;;;0.63;0.40;;;22.00;60.80;;;;;;6296194;28;20095;-64
2023/07/28 02:49:18;;;;;;;0.30;0.30;;;22.00;60.80;;;;;;6295956;28;20044;-64
2023/07/28 02:52:18;;;;;;;1.05;0.60;;;22.00;60.90;;;;;;6294737;28;20523;-64
2023/07/28 02:55:19;;;;;;;0.55;0.40;;;22.00;61.00;;;;;;6295746;28;20029;-63
2023/07/28 02:58:20;;;;;;;0.30;0.30;;;22.00;61.00;;;;;;6296356;28;20647;-63
2023/07/28 03:01:20;;;;;;;0.70;0.55;;;22.00;61.00;;;;;;6296220;28;20033;-64
2023/07/28 03:04:21;;;;;;;0.52;0.47;;;22.00;60.90;;;;;;6296274;28;20538;-64
2023/07/28 03:07:22;;;;;;;0.40;0.40;;;22.00;60.80;;;;;;6294218;28;20020;-63
2023/07/28 03:10:23;;;;;;;0.40;0.40;;;22.00;61.00;;;;;;6295675;28;20167;-64
2023/07/28 03:13:23;;;;;;;0.85;0.50;;;22.00;60.90;;;;;;6295684;28;20028;-64
2023/07/28 03:16:24;;;;;;;0.30;0.30;;;22.00;60.90;;;;;;6295533;28;20035;-64
2023/07/28 03:19:25;;;;;;;0.35;0.32;;;22.00;61.00;;;;;;6295842;28;20020;-64
2023/07/28 03:22:25;;;;;;;0.90;0.52;;;22.00;61.00;;;;;;6295681;28;20477;-64
2023/07/28 03:25:26;;;;;;;0.85;0.40;;;22.00;61.00;;;;;;6295246;28;20020;-63
2023/07/28 03:28:27;;;;;;;0.50;0.30;;;22.00;61.00;;;;;;6295637;28;20513;-64
2023/07/28 03:31:28;;;;;;;0.40;0.40;;;22.00;61.00;;;;;;6295244;28;20067;-63
2023/07/28 03:34:28;;;;;;;0.55;0.40;;;22.00;61.00;;;;;;6295212;28;20732;-63
2023/07/28 03:37:29;;;;;;;0.35;0.32;;;22.00;61.00;;;;;;6294800;28;20025;-64
2023/07/28 03:40:30;;;;;;;0.30;0.30;;;22.00;61.00;;;;;;6295301;28;20115;-64
2023/07/28 03:43:30;;;;;;;0.38;0.38;;;22.00;61.00;;;;;;6294989;28;20477;-64
2023/07/28 03:46:31;;;;;;;0.20;0.20;;;22.00;60.90;;;;;;6295089;28;20025;-64
2023/07/28 03:49:32;;;;;;;0.40;0.38;;;22.00;61.00;;;;;;6294839;28;20075;-64
2023/07/28 03:52:32;;;;;;;0.40;0.40;;;22.00;61.00;;;;;;6294768;28;20029;-64
2023/07/28 03:55:33;;;;;;;0.73;0.30;;;22.00;61.00;;;;;;6294527;28;20051;-63
2023/07/28 03:58:34;;;;;;;0.38;0.38;;;22.00;61.00;;;;;;6294480;28;20115;-63
2023/07/28 04:01:34;;;;;;;0.20;0.20;;;22.00;61.00;;;;;;6294538;28;20025;-64
2023/07/28 04:04:36;;;;;;;0.40;0.40;;;22.00;61.10;;;;;;6294550;28;20021;-64
2023/07/28 04:07:36;;;;;;;0.35;0.35;;;22.00;61.90;;;;;;6294274;28;20358;-63
2023/07/28 04:10:37;;;;;;;0.55;0.40;;;22.00;61.00;;;;;;6294146;28;20035;-64
2023/07/28 04:13:38;;;;;;;0.50;0.40;;;22.00;61.10;;;;;;6294350;28;20025;-64
2023/07/28 04:16:38;;;;;;;0.65;0.40;;;22.00;61.10;;;;;;6293703;28;20024;-63
2023/07/28 04:19:39;;;;;;;0.50;0.50;;;22.00;61.10;;;;;;6294497;28;20024;-64
2023/07/28 04:22:39;;;;;;;0.30;0.30;;;22.00;61.10;;;;;;6293987;28;20028;-64
2023/07/28 04:25:40;;;;;;;0.25;0.22;;;22.00;61.10;;;;;;6293985;28;20386;-63
2023/07/28 04:28:41;;;;;;;0.40;0.30;;;22.00;61.10;;;;;;6294070;28;20020;-63
2023/07/28 04:31:41;;;;;;;1.00;0.38;;;22.00;61.10;;;;;;6294135;28;20448;-64
2023/07/28 04:34:42;;;;;;;0.75;0.40;;;22.00;61.10;;;;;;6293765;28;20501;-64
2023/07/28 04:37:43;;;;;;;0.40;0.40;;;22.00;61.10;;;;;;6292491;28;20478;-63
2023/07/28 04:40:44;;;;;;;0.70;0.50;;;22.00;61.10;;;;;;6294988;28;20727;-64
2023/07/28 04:43:45;;;;;;;0.43;0.38;;;22.00;61.10;;;;;;6290614;28;20746;-64
2023/07/28 04:46:47;;;;;;;1.05;0.50;;;22.00;61.10;;;;;;6279252;28;20020;-64
2023/07/28 04:49:48;;;;;;;0.30;0.30;;;22.00;61.10;;;;;;6294042;28;20099;-64
2023/07/28 04:52:49;;;;;;;0.32;0.30;;;22.00;61.90;;;;;;6293894;28;20025;-64
2023/07/28 04:55:50;;;;;;;0.95;0.47;;;22.00;61.10;;;;;;6293668;28;20103;-63
2023/07/28 04:58:51;;;;;;;0.35;0.32;;;22.00;61.10;;;;;;6292920;28;20047;-64
2023/07/28 05:01:51;;;;;;;0.30;0.30;;;22.00;61.10;;;;;;6293442;28;20028;-63
2023/07/28 05:04:52;;;;;;;0.30;0.30;;;22.00;61.10;;;;;;6280732;28;20048;-63
2023/07/28 05:07:53;;;;;;;0.55;0.40;;;22.00;61.10;;;;;;6278776;28;20111;-64
2023/07/28 05:10:53;;;;;;;0.57;0.35;;;22.00;61.20;;;;;;6291408;28;20086;-64
2023/07/28 05:13:54;;;;;;;0.70;0.52;;;22.00;61.10;;;;;;6291976;28;20497;-64
2023/07/28 05:16:55;;;;;;;0.38;0.38;;;22.00;61.20;;;;;;6290911;28;20108;-64
2023/07/28 05:19:55;;;;;;;0.30;0.30;;;22.00;61.20;;;;;;6292633;28;20035;-63
2023/07/28 05:22:56;;;;;;;0.50;0.50;;;22.00;61.20;;;;;;6291597;28;20070;-64
2023/07/28 05:25:57;;;;;;;0.43;0.35;;;22.00;61.20;;;;;;6279216;28;20419;-64
2023/07/28 05:28:57;;;;;;;0.43;0.32;;;22.00;61.20;;;;;;6289610;28;20437;-64
2023/07/28 05:31:59;;;;;;;0.68;0.50;;;22.00;61.30;;;;;;6292020;28;20036;-63
2023/07/28 05:35:00;;;;;;;0.38;0.38;;;22.00;61.20;;;;;;6293592;28;20147;-62
2023/07/28 05:38:02;;;;;;;0.30;0.30;;;22.00;61.20;;;;;;6287544;28;20036;-64
2023/07/28 05:41:04;;;;;;;0.30;0.30;;;22.00;61.30;;;;;;6296040;28;20477;-64
2023/07/28 05:44:05;;;;;;;0.43;0.40;;;22.00;61.20;;;;;;6296135;28;20032;-64
2023/07/28 05:47:07;;;;;;;0.38;0.38;;;22.00;61.20;;;;;;6295708;28;20103;-64
2023/07/28 05:50:08;;;;;;;0.65;0.30;;;22.00;61.20;;;;;;6296202;28;20013;-64
2023/07/28 05:53:08;;;;;;;0.35;0.35;;;22.00;61.20;;;;;;6295848;28;20350;-64
2023/07/28 05:56:09;;;;;;;0.40;0.38;;;22.00;61.20;;;;;;6294340;28;20028;-62
2023/07/28 05:59:10;;;;;;;0.20;0.20;;;22.00;61.40;;;;;;6277376;28;20380;-64
2023/07/28 06:02:10;;;;;;;0.82;0.40;;;22.00;61.30;;;;;;6277879;28;20085;-63
2023/07/28 06:05:11;;;;;;;0.88;0.55;;;22.00;61.30;;;;;;6298145;28;20016;-63
2023/07/28 06:08:12;;;;;;;0.52;0.40;;;22.00;61.30;;;;;;6297543;28;20115;-64
2023/07/28 06:11:12;;;;;;;0.30;0.30;;;22.00;61.40;;;;;;6298082;28;20047;-64
2023/07/28 06:14:13;;;;;;;0.80;0.30;;;21.90;61.30;;;;;;6298438;28;20106;-64
2023/07/28 06:17:13;;;;;;;0.30;0.30;;;22.00;61.40;;;;;;6298322;28;20033;-63
2023/07/28 06:20:14;;;;;;;0.73;0.28;;;22.00;61.40;;;;;;6297490;28;20028;-64
2023/07/28 06:23:15;;;;;;;0.30;0.30;;;22.00;61.40;;;;;;6296019;28;20020;-64
2023/07/28 06:26:16;;;;;;;9.55;0.40;;;22.00;61.40;;;;;;6295707;28;20197;-65
2023/07/28 06:29:17;;;;;;;4.85;0.50;;;22.00;61.70;;;;;;6295491;28;20027;-64
2023/07/28 06:32:17;;;;;;;11.07;0.52;;;22.10;61.60;;;;;;6286200;28;20028;-64
2023/07/28 06:35:18;;;;;;;7.30;1.38;;;22.10;61.60;;;;;;6298442;28;20051;-65
2023/07/28 06:38:19;;;;;;;5.47;0.85;;;22.10;61.80;;;;;;6297477;28;20519;-65
2023/07/28 06:41:19;;;;;;;5.15;0.75;;;22.20;62.00;;;;;;6277201;28;20031;-65
2023/07/28 06:44:20;;;;;;;12.63;2.30;;;22.20;61.80;;;;;;6290397;28;20843;-64
2023/07/28 06:47:21;;;;;;;11.10;2.35;;;22.20;61.90;;;;;;6296518;28;20025;-65
2023/07/28 06:50:21;;;;;;;8.35;1.60;;;22.30;62.10;;;;;;6285363;28;20476;-63
2023/07/28 06:53:22;;;;;;;15.45;2.78;;;22.30;61.60;;;;;;6287576;28;20036;-64
2023/07/28 06:56:23;;;;;;;13.68;2.35;;;22.30;61.70;;;;;;6282234;28;20020;-65
2023/07/28 06:59:23;;;;;;;10.48;2.50;;;22.40;61.80;;;;;;6292821;28;20389;-65
2023/07/28 07:02:24;;;;;;;11.65;2.35;;;22.40;61.70;;;;;;6272270;28;20089;-62
2023/07/28 07:05:24;;;;;;;11.13;3.03;;;22.50;61.60;;;;;;6297580;28;20099;-64
2023/07/28 07:08:26;;;;;;;20.70;3.35;;;22.60;61.60;;;;;;6296768;28;20489;-64
2023/07/28 07:11:27;;;;;;;16.10;4.00;;;22.60;61.30;;;;;;6296691;28;20028;-64
2023/07/28 07:14:28;;;;;;;17.58;3.92;;;22.70;61.50;;;;;;6286785;28;20055;-65
2023/07/28 07:17:29;;;;;;;21.95;4.60;;;22.70;61.60;;;;;;6296290;28;20027;-64
2023/07/28 07:20:30;;;;;;;26.50;4.80;;;22.60;61.40;;;;;;6296677;28;20025;-65
2023/07/28 07:23:30;;;;;;;23.70;4.63;;;22.60;61.60;;;;;;6296124;28;20041;-64
2023/07/28 07:26:31;;;;;;;22.85;4.05;;;22.60;62.00;;;;;;6295296;28;20032;-65
2023/07/28 07:29:32;;;;;;;26.10;4.38;;;22.60;61.90;;;;;;6296158;28;20138;-65
2023/07/28 07:32:34;;;;;;;19.42;4.22;;;22.60;61.90;;;;;;6295890;28;20657;-65
2023/07/28 07:35:38;;;;;;;11.10;3.33;;;22.60;61.90;;;;;;6296248;28;20036;-65
2023/07/28 07:38:40;;;;;;;15.25;3.08;;;22.60;61.60;;;;;;6296037;28;20077;-65
2023/07/28 07:41:41;;;;;;;17.42;3.20;;;22.60;61.60;;;;;;6296190;28;20039;-64
2023/07/28 07:44:42;;;;;;;13.32;3.75;;;22.60;61.80;;;;;;6294291;28;20537;-64
2023/07/28 07:47:43;;;;;;;14.68;3.20;;;22.60;61.00;;;;;;6295933;28;20064;-64
2023/07/28 07:50:44;;;;;;;15.82;3.50;;;22.60;61.50;;;;;;6295529;28;20029;-64
2023/07/28 07:53:45;;;;;;;11.25;3.20;;;22.60;61.70;;;;;;6295284;28;20087;-64
2023/07/28 07:56:46;;;;;;;14.77;2.85;;;22.60;61.80;;;;;;6296005;28;20035;-65
2023/07/28 07:59:47;;;;;;;13.02;3.15;;;22.60;62.30;;;;;;6295510;28;20051;-64
2023/07/28 08:02:48;;;;;;;8.38;2.17;;;22.50;63.70;;;;;;6296179;28;20112;-64
2023/07/28 08:05:50;;;;;;;8.13;2.20;;;22.50;65.30;;;;;;6293544;28;20481;-64
2023/07/28 08:08:52;;;;;;;5.60;1.80;;;22.50;65.90;;;;;;6295712;28;20497;-65
2023/07/28 08:11:55;;;;;;;8.60;1.58;;;22.40;66.70;;;;;;6295803;28;20020;-64
2023/07/28 08:14:56;;;;;;;8.07;1.63;;;22.40;67.00;;;;;;6295820;28;20028;-65
2023/07/28 08:17:56;;;;;;;4.53;1.73;;;22.40;66.70;;;;;;6282730;28;20451;-64
2023/07/28 08:20:57;;;;;;;3.88;1.45;;;22.40;67.70;;;;;;6288106;28;20448;-64
2023/07/28 08:23:58;;;;;;;4.38;1.42;;;22.40;67.00;;;;;;6295427;28;20025;-63
2023/07/28 08:26:59;;;;;;;8.73;1.85;;;22.40;67.30;;;;;;6295985;28;20024;-65
2023/07/28 08:30:00;;;;;;;7.55;1.52;;;22.40;67.40;;;;;;6295606;28;20025;-65
2023/07/28 08:33:01;;;;;;;2.58;1.25;;;22.40;67.90;;;;;;6295677;28;20387;-65
2023/07/28 08:36:02;;;;;;;3.05;1.35;;;22.40;68.30;;;;;;6295519;28;20026;-65
2023/07/28 08:39:03;;;;;;;5.00;1.55;;;22.40;68.30;;;;;;6296035;28;20046;-65
2023/07/28 08:42:05;;;;;;;5.30;1.00;;;22.40;67.10;;;;;;6295519;28;20024;-65
2023/07/28 08:45:08;;;;;;;3.05;1.13;;;22.40;68.60;;;;;;6295405;28;20079;-63
2023/07/28 08:48:08;;;;;;;2.83;1.02;;;22.40;68.50;;;;;;6295607;28;20052;-64
2023/07/28 08:51:11;;;;;;;2.95;1.17;;;22.40;68.90;;;;;;6294695;28;20023;-62
2023/07/28 08:54:13;;;;;;;3.05;1.40;;;22.40;68.20;;;;;;6293587;28;20044;-64
2023/07/28 08:57:14;;;;;;;3.25;1.00;;;22.40;68.50;;;;;;6292668;28;20492;-64
2023/07/28 09:00:17;;;;;;;5.95;1.75;;;22.40;67.20;;;;;;6293053;28;20105;-64
2023/07/28 09:03:18;;;;;;;2.70;0.90;;;22.40;67.90;;;;;;6293074;28;20012;-64
2023/07/28 09:06:30;;;;;;;3.05;1.08;;;22.40;67.80;;;;;;6289970;28;20028;-64
2023/07/28 09:09:33;;;;;;;2.55;0.85;;;22.40;67.90;;;;;;6291890;28;20043;-64
2023/07/28 09:12:34;;;;;;;1.58;0.90;;;22.40;67.20;;;;;;6291662;28;20032;-64
2023/07/28 09:15:35;;;;;;;4.63;1.08;;;22.40;67.90;;;;;;6289714;28;20933;-65
2023/07/28 09:18:36;;;;;;;2.05;0.88;;;22.40;67.70;;;;;;6291334;28;20020;-64
2023/07/28 09:21:43;;;;;;;1.35;0.60;;;22.40;68.50;;;;;;6290936;28;20890;-64
2023/07/28 09:24:43;;;;;;;1.98;0.95;;;22.40;67.30;;;;;;6291481;28;20025;-64
2023/07/28 09:27:51;;;;;;;1.02;0.88;;;22.40;68.90;;;;;;6291463;28;20098;-64
2023/07/28 09:30:53;;;;;;;2.65;1.00;;;22.40;68.30;;;;;;6291283;28;20075;-63
2023/07/28 09:33:54;;;;;;;1.77;0.80;;;22.40;69.50;;;;;;6291632;28;20483;-64
2023/07/28 09:36:57;;;;;;;1.98;1.10;;;22.40;69.10;;;;;;6290948;28;20036;-64
2023/07/28 09:39:58;;;;;;;2.15;1.10;;;22.40;67.70;;;;;;6291278;28;20100;-64
2023/07/28 09:42:59;;;;;;;1.58;0.88;;;22.40;67.40;;;;;;6291512;28;20017;-63
2023/07/28 09:46:03;;;;;;;1.85;0.90;;;22.40;67.70;;;;;;6290721;28;20428;-64
2023/07/28 09:49:13;;;;;;;1.25;1.00;;;22.40;67.60;;;;;;6291759;28;20036;-63
2023/07/28 09:52:16;;;;;;;1.90;0.80;;;22.40;67.70;;;;;;6290365;28;20053;-64
2023/07/28 09:55:19;;;;;;;2.15;1.20;;;22.40;67.70;;;;;;6290457;28;20594;-64
2023/07/28 09:58:23;;;;;;;1.20;0.80;;;22.40;66.80;;;;;;6290511;28;20020;-64
2023/07/28 10:01:25;;;;;;;0.77;0.60;;;22.40;66.30;;;;;;6290428;28;20179;-63
2023/07/28 10:04:26;;;;;;;1.58;1.00;;;22.40;65.50;;;;;;6291445;28;20024;-64
2023/07/28 10:07:28;;;;;;;1.35;0.70;;;22.40;65.00;;;;;;6290499;28;20021;-64
2023/07/28 10:10:28;;;;;;;1.38;0.70;;;22.40;64.70;;;;;;6290288;28;20035;-64
2023/07/28 10:13:41;;;;;;;1.00;0.70;;;22.40;64.40;;;;;;6288869;28;20029;-64
2023/07/28 10:16:43;;;;;;;1.42;0.80;;;22.40;64.10;;;;;;6289791;28;20473;-64
2023/07/28 10:19:43;;;;;;;1.35;0.80;;;22.40;64.10;;;;;;6294913;28;20055;-64
2023/07/28 10:22:45;;;;;;;1.92;0.88;;;22.40;64.30;;;;;;6295040;28;20029;-66
2023/07/28 10:25:46;;;;;;;1.33;0.88;;;22.40;64.00;;;;;;6295073;28;20024;-64
2023/07/28 10:28:47;;;;;;;0.80;0.60;;;22.40;63.90;;;;;;6295223;28;20031;-64
2023/07/28 10:31:56;;;;;;;1.08;0.60;;;22.40;63.90;;;;;;6294712;28;20472;-63
2023/07/28 10:35:31;;;;;;;1.42;0.80;;;22.40;63.90;;;;;;6294593;28;20056;-65
2023/07/28 10:38:34;;;;;;;0.88;0.70;;;22.40;63.80;;;;;;6282299;28;20059;-64
2023/07/28 10:41:35;;;;;;;1.33;0.77;;;22.40;63.90;;;;;;6293251;28;20141;-64
2023/07/28 10:44:37;;;;;;;1.83;0.60;;;22.40;63.80;;;;;;6294457;28;20084;-64
2023/07/28 10:47:38;;;;;;;1.88;0.90;;;22.40;63.70;;;;;;6294164;28;20517;-63
2023/07/28 10:50:38;;;;;;;0.90;0.70;;;22.40;63.70;;;;;;6293787;28;20389;-64
2023/07/28 10:53:39;;;;;;;1.48;0.80;;;22.40;63.60;;;;;;6293828;28;20063;-64
2023/07/28 10:56:40;;;;;;;1.52;0.80;;;22.40;64.40;;;;;;6294157;28;20064;-64
2023/07/28 10:59:41;;;;;;;0.88;0.65;;;22.40;63.50;;;;;;6294319;28;20154;-64
2023/07/28 11:02:46;;;;;;;1.85;0.88;;;22.40;63.40;;;;;;6293815;28;20412;-63
2023/07/28 11:05:50;;;;;;;2.38;0.90;;;22.40;63.30;;;;;;6294008;28;20440;-64
2023/07/28 11:08:51;;;;;;;1.15;0.70;;;22.40;63.30;;;;;;6294488;28;20074;-63
2023/07/28 11:11:52;;;;;;;1.13;0.65;;;22.50;63.40;;;;;;6294144;28;20025;-64
2023/07/28 11:14:53;;;;;;;1.13;0.75;;;22.50;63.20;;;;;;6292870;28;20154;-64
2023/07/28 11:17:54;;;;;;;1.23;0.88;;;22.50;63.10;;;;;;6293289;28;20020;-64
2023/07/28 11:20:55;;;;;;;1.45;0.73;;;22.50;63.20;;;;;;6293764;28;20501;-64
2023/07/28 11:23:56;;;;;;;0.60;0.55;;;22.40;63.20;;;;;;6292950;28;20132;-64
2023/07/28 11:26:59;;;;;;;1.77;0.60;;;22.50;63.20;;;;;;6294036;28;20119;-64
2023/07/28 11:30:03;;;;;;;1.08;0.80;;;22.50;63.20;;;;;;6292747;28;20614;-64
2023/07/28 11:33:04;;;;;;;0.98;0.80;;;22.50;63.10;;;;;;6292436;28;20120;-63
2023/07/28 11:36:05;;;;;;;1.35;0.60;;;22.40;63.10;;;;;;6293087;28;20082;-65
2023/07/28 11:39:06;;;;;;;1.33;0.70;;;22.50;63.10;;;;;;6292981;28;20063;-64
2023/07/28 11:42:08;;;;;;;0.88;0.73;;;22.50;63.10;;;;;;6290569;28;20029;-65
2023/07/28 11:45:12;;;;;;;1.05;0.68;;;22.50;63.10;;;;;;6291395;28;20020;-64
2023/07/28 11:48:15;;;;;;;0.93;0.65;;;22.50;63.10;;;;;;6291352;28;20036;-63
2023/07/28 11:51:17;;;;;;;1.40;0.43;;;22.40;62.90;;;;;;6292347;28;20048;-65
2023/07/28 11:54:21;;;;;;;1.13;0.70;;;22.40;62.90;;;;;;6290949;28;20032;-65
2023/07/28 11:57:23;;;;;;;1.33;0.80;;;22.50;63.00;;;;;;6286624;28;20130;-64
2023/07/28 12:00:34;;;;;;;1.38;0.80;;;22.40;63.70;;;;;;6291606;28;20078;-64
2023/07/28 12:03:35;;;;;;;1.92;0.70;;;22.50;63.00;;;;;;6291066;28;20408;-64
2023/07/28 12:07:06;;;;;;;1.27;0.75;;;22.50;62.90;;;;;;6292022;28;20066;-65
2023/07/28 12:10:09;;;;;;;1.85;0.70;;;22.50;63.00;;;;;;6291698;28;20393;-65
2023/07/28 12:13:10;;;;;;;1.50;0.75;;;22.40;62.80;;;;;;6292260;28;20029;-62
2023/07/28 12:16:31;;;;;;;0.70;0.60;;;22.50;62.90;;;;;;6291319;28;20052;-65
2023/07/28 12:19:32;;;;;;;1.50;0.80;;;22.50;63.00;;;;;;6291264;28;20372;-65
2023/07/28 12:22:33;;;;;;;0.63;0.52;;;22.40;62.80;;;;;;6291298;28;20055;-64
2023/07/28 12:25:36;;;;;;;0.63;0.60;;;22.40;62.80;;;;;;6291859;28;20024;-65
2023/07/28 12:28:36;;;;;;;1.20;0.68;;;22.40;62.70;;;;;;6292123;28;20100;-66
2023/07/28 12:31:38;;;;;;;1.38;0.77;;;22.40;62.70;;;;;;6291686;28;20024;-67
2023/07/28 12:34:40;;;;;;;1.23;0.70;;;22.40;62.80;;;;;;6289561;28;20156;-65
2023/07/28 12:37:41;;;;;;;1.05;0.60;;;22.40;62.80;;;;;;6290634;28;20876;-64
2023/07/28 12:40:42;;;;;;;1.00;0.60;;;22.40;62.80;;;;;;6290558;28;20033;-64
2023/07/28 12:43:43;;;;;;;0.85;0.68;;;22.40;62.70;;;;;;6280942;28;20032;-64
2023/07/28 12:46:43;;;;;;;1.10;0.63;;;22.50;62.80;;;;;;6290246;28;20161;-65
2023/07/28 12:49:44;;;;;;;2.33;0.95;;;22.40;62.70;;;;;;6292056;28;20066;-64
2023/07/28 12:52:46;;;;;;;1.10;0.60;;;22.40;62.70;;;;;;6291074;28;20059;-65
2023/07/28 12:55:47;;;;;;;1.63;0.80;;;22.40;62.70;;;;;;6291223;28;20028;-65
2023/07/28 12:58:47;;;;;;;1.08;0.60;;;22.40;62.70;;;;;;6291138;28;20028;-65
2023/07/28 13:01:48;;;;;;;1.15;0.63;;;22.40;63.50;;;;;;6291144;28;20017;-65
2023/07/28 13:04:49;;;;;;;0.77;0.60;;;22.40;62.70;;;;;;6291623;28;20108;-65
2023/07/28 13:07:50;;;;;;;1.20;0.63;;;22.40;62.70;;;;;;6291006;28;20024;-64
2023/07/28 13:10:51;;;;;;;1.30;0.70;;;22.40;62.70;;;;;;6292201;28;20025;-65
2023/07/28 13:13:51;;;;;;;1.17;0.57;;;22.40;62.70;;;;;;6291130;28;20032;-65
2023/07/28 13:16:52;;;;;;;0.73;0.60;;;22.40;62.60;;;;;;6290590;28;20050;-65
2023/07/28 13:19:53;;;;;;;0.50;0.50;;;22.50;62.70;;;;;;6291978;28;20584;-65
2023/07/28 13:22:53;;;;;;;1.23;0.70;;;22.40;62.60;;;;;;6283288;28;20367;-65
2023/07/28 13:25:54;;;;;;;0.65;0.50;;;22.40;62.60;;;;;;6293330;28;20071;-65
2023/07/28 13:28:58;;;;;;;1.08;0.73;;;22.40;62.60;;;;;;6292466;28;20447;-64
2023/07/28 13:32:00;;;;;;;0.98;0.60;;;22.40;62.60;;;;;;6291729;28;20029;-65
2023/07/28 13:35:00;;;;;;;0.93;0.60;;;22.50;62.70;;;;;;6292268;28;20109;-65
2023/07/28 13:38:01;;;;;;;0.82;0.60;;;22.40;62.60;;;;;;6290922;28;20037;-64
2023/07/28 13:41:05;;;;;;;1.38;0.95;;;22.40;62.60;;;;;;6274328;28;20036;-66
2023/07/28 13:44:06;;;;;;;0.98;0.45;;;22.40;62.60;;;;;;6285494;28;20102;-65
2023/07/28 13:47:07;;;;;;;0.50;0.40;;;22.40;62.60;;;;;;6292795;28;20532;-65
2023/07/28 13:50:08;;;;;;;1.13;0.60;;;22.40;63.50;;;;;;6293269;28;20028;-65
2023/07/28 13:53:09;;;;;;;0.60;0.55;;;22.40;62.50;;;;;;6295622;28;20128;-65
2023/07/28 13:56:10;;;;;;;1.23;0.60;;;22.40;62.50;;;;;;6295438;28;20686;-65
2023/07/28 13:59:11;;;;;;;1.13;0.60;;;22.40;62.60;;;;;;6297704;28;20087;-65
2023/07/28 14:02:12;;;;;;;0.63;0.50;;;22.40;62.50;;;;;;6296346;28;20040;-65
2023/07/28 14:05:13;;;;;;;2.67;0.65;;;22.40;62.50;;;;;;6297995;28;20024;-66
2023/07/28 14:08:14;;;;;;;0.52;0.40;;;22.40;62.50;;;;;;6296982;28;20047;-65
2023/07/28 14:11:15;;;;;;;0.52;0.50;;;22.40;62.60;;;;;;6277163;28;20032;-65
2023/07/28 14:14:16;;;;;;;0.98;0.60;;;22.40;62.50;;;;;;6289349;28;20040;-65
2023/07/28 14:17:17;;;;;;;0.75;0.65;;;22.40;62.60;;;;;;6296451;28;20553;-66
2023/07/28 14:20:17;;;;;;;0.80;0.52;;;22.40;62.60;;;;;;6295696;28;20556;-65
2023/07/28 14:23:26;;;;;;;0.95;0.60;;;22.40;62.60;;;;;;6296232;28;20028;-65
2023/07/28 14:26:27;;;;;;;0.47;0.47;;;22.40;62.50;;;;;;6297315;28;20027;-66
2023/07/28 14:29:27;;;;;;;1.67;0.70;;;22.40;62.50;;;;;;6295648;28;20025;-66
2023/07/28 14:32:28;;;;;;;0.82;0.60;;;22.50;62.60;;;;;;6295886;28;20473;-67
2023/07/28 14:35:29;;;;;;;0.63;0.60;;;22.50;62.50;;;;;;6296427;28;20028;-65
2023/07/28 14:38:29;;;;;;;1.52;0.57;;;22.50;62.50;;;;;;6288361;28;20559;-66
2023/07/28 14:41:30;;;;;;;0.82;0.57;;;22.50;62.60;;;;;;6296183;28;20025;-66
2023/07/28 14:44:31;;;;;;;1.05;0.60;;;22.50;62.50;;;;;;6296200;28;20024;-64
2023/07/28 14:47:32;;;;;;;1.10;0.70;;;22.50;62.50;;;;;;6289932;28;20024;-64
2023/07/28 14:50:32;;;;;;;0.82;0.65;;;22.50;62.60;;;;;;6296385;28;20029;-65
2023/07/28 14:53:35;;;;;;;1.13;0.60;;;22.50;62.60;;;;;;6296307;28;20048;-65
2023/07/28 14:56:36;;;;;;;0.80;0.50;;;22.50;62.60;;;;;;6296156;28;20070;-64
2023/07/28 14:59:37;;;;;;;0.88;0.57;;;22.40;62.50;;;;;;6287486;28;20367;-65
2023/07/28 15:02:37;;;;;;;1.48;0.60;;;22.50;62.60;;;;;;6295747;28;20028;-65
2023/07/28 15:05:38;;;;;;;1.90;0.75;;;22.40;62.60;;;;;;6294965;28;20017;-66
2023/07/28 15:08:39;;;;;;;1.25;0.70;;;22.40;62.60;;;;;;6294906;28;20042;-66
2023/07/28 15:11:40;;;;;;;0.82;0.60;;;22.40;62.50;;;;;;6294755;28;20020;-66
2023/07/28 15:14:40;;;;;;;1.83;0.80;;;22.40;62.50;;;;;;6294936;28;20071;-67
2023/07/28 15:17:41;;;;;;;1.48;0.75;;;22.40;62.50;;;;;;6293679;28;20025;-65
2023/07/28 15:20:42;;;;;;;1.20;0.60;;;22.50;62.60;;;;;;6295176;28;20584;-66
2023/07/28 15:23:45;;;;;;;1.67;0.73;;;22.40;62.50;;;;;;6293963;28;20781;-66
2023/07/28 15:26:49;;;;;;;1.23;0.70;;;22.50;62.60;;;;;;6293918;28;20031;-66
2023/07/28 15:29:50;;;;;;;3.03;0.80;;;22.40;62.50;;;;;;6294281;28;20382;-66
2023/07/28 15:32:51;;;;;;;0.93;0.70;;;22.40;62.50;;;;;;6294799;28;20378;-66
2023/07/28 15:35:51;;;;;;;0.82;0.70;;;22.40;62.50;;;;;;6291998;28;20031;-66
2023/07/28 15:38:52;;;;;;;1.50;0.70;;;22.40;62.50;;;;;;6292357;28;20028;-65
2023/07/28 15:41:53;;;;;;;0.60;0.50;;;22.40;62.50;;;;;;6287018;28;20064;-65
2023/07/28 15:44:54;;;;;;;0.90;0.70;;;22.40;62.50;;;;;;6294304;28;20036;-66